createdAt,value
2023-02-23T00:02:07.295Z,13.99
2023-02-23T00:04:35.548Z,14.00
2023-02-23T00:07:02.915Z,14.01
2023-02-23T00:09:35.894Z,14.01
2023-02-23T00:12:09.330Z,14.01
2023-02-23T00:14:38.397Z,14.02
2023-02-23T00:17:13.939Z,13.99
2023-02-23T00:19:43.331Z,13.99
2023-02-23T00:22:10.454Z,13.99
2023-02-23T00:24:38.721Z,13.99
2023-02-23T00:27:06.509Z,13.98
2023-02-23T00:29:39.337Z,13.99
2023-02-23T00:32:06.289Z,13.98
2023-02-23T00:34:33.142Z,13.98
2023-02-23T00:36:59.839Z,13.97
2023-02-23T00:39:29.023Z,13.94
2023-02-23T00:41:57.202Z,13.93
2023-02-23T00:44:24.964Z,13.91
2023-02-23T00:46:52.894Z,13.89
2023-02-23T00:49:23.346Z,13.88
2023-02-23T00:51:50.641Z,13.87
2023-02-23T00:54:20.361Z,13.85
2023-02-23T00:56:48.014Z,13.82
2023-02-23T00:59:15.329Z,13.82
2023-02-23T01:01:42.880Z,13.80
2023-02-23T01:04:11.887Z,13.80
2023-02-23T01:06:40.781Z,13.79
2023-02-23T01:09:14.626Z,13.80
2023-02-23T01:11:42.057Z,13.78
2023-02-23T01:14:10.580Z,13.76
2023-02-23T01:16:38.858Z,13.76
2023-02-23T01:19:06.709Z,13.75
2023-02-23T01:21:37.929Z,13.74
2023-02-23T01:24:06.185Z,13.73
2023-02-23T01:26:45.199Z,13.71
2023-02-23T01:29:16.916Z,13.69
2023-02-23T01:31:48.278Z,13.68
2023-02-23T01:34:15.648Z,13.68
2023-02-23T01:36:44.534Z,13.65
2023-02-23T01:39:18.658Z,13.66
2023-02-23T01:41:45.774Z,13.63
2023-02-23T01:44:15.337Z,13.63
2023-02-23T01:46:46.161Z,13.61
2023-02-23T01:49:22.295Z,13.60
2023-02-23T01:52:17.015Z,13.57
2023-02-23T01:54:51.464Z,13.57
2023-02-23T01:57:24.803Z,13.53
2023-02-23T01:59:52.705Z,13.53
2023-02-23T02:02:30.607Z,13.55
2023-02-23T02:04:57.504Z,13.53
2023-02-23T02:07:29.790Z,13.52
2023-02-23T02:10:22.080Z,13.52
2023-02-23T02:12:57.552Z,13.52
2023-02-23T02:15:31.609Z,13.51
2023-02-23T02:18:23.352Z,13.50
2023-02-23T02:21:26.224Z,13.49
2023-02-23T02:24:47.511Z,13.46
2023-02-23T02:27:50.978Z,13.42
2023-02-23T02:30:57.639Z,13.40
2023-02-23T02:33:59.118Z,13.36
2023-02-23T02:37:07.056Z,13.36
2023-02-23T02:40:19.372Z,13.33
2023-02-23T02:43:00.295Z,13.30
2023-02-23T02:45:57.084Z,13.30
2023-02-23T02:48:33.116Z,13.31
2023-02-23T02:51:23.985Z,13.30
2023-02-23T02:54:07.234Z,13.26
2023-02-23T02:56:43.332Z,13.28
2023-02-23T02:59:34.824Z,13.27
2023-02-23T03:02:23.037Z,13.24
2023-02-23T03:05:08.227Z,13.22
2023-02-23T03:08:09.682Z,13.21
2023-02-23T03:11:24.895Z,13.18
2023-02-23T03:14:47.368Z,13.16
2023-02-23T03:17:54.146Z,13.14
2023-02-23T03:20:55.129Z,13.10
2023-02-23T03:24:25.402Z,13.09
2023-02-23T03:27:42.991Z,13.05
2023-02-23T03:30:45.931Z,13.04
2023-02-23T03:33:40.716Z,13.03
2023-02-23T03:36:44.708Z,13.02
2023-02-23T03:39:44.193Z,13.03
2023-02-23T03:42:36.937Z,13.03
2023-02-23T03:45:34.516Z,13.04
2023-02-23T03:48:25.431Z,13.03
2023-02-23T03:51:21.731Z,13.04
2023-02-23T03:54:16.072Z,13.04
2023-02-23T03:57:07.136Z,13.05
2023-02-23T04:00:02.407Z,13.04
2023-02-23T04:02:50.409Z,13.05
2023-02-23T04:05:38.597Z,13.06
2023-02-23T04:08:29.879Z,13.06
2023-02-23T04:12:02.562Z,13.04
2023-02-23T04:14:43.774Z,13.02
2023-02-23T04:17:12.491Z,13.01
2023-02-23T04:19:39.211Z,13.03
2023-02-23T04:22:05.933Z,13.04
2023-02-23T04:24:32.781Z,13.05
2023-02-23T04:26:59.522Z,13.06
2023-02-23T04:29:26.271Z,13.07
2023-02-23T04:31:54.057Z,13.05
2023-02-23T04:34:20.801Z,13.06
2023-02-23T04:36:47.808Z,13.06
2023-02-23T04:39:14.526Z,13.07
2023-02-23T04:41:41.263Z,13.06
2023-02-23T04:44:08.026Z,13.07
2023-02-23T04:46:34.768Z,13.09
2023-02-23T04:49:01.912Z,13.08
2023-02-23T04:51:32.125Z,13.09
2023-02-23T04:53:58.863Z,13.10
2023-02-23T04:56:25.940Z,13.10
2023-02-23T04:58:53.283Z,13.09
2023-02-23T05:01:22.310Z,13.12
2023-02-23T05:03:50.142Z,13.11
2023-02-23T05:06:20.943Z,13.10
2023-02-23T05:08:47.908Z,13.09
2023-02-23T05:11:14.820Z,13.08
2023-02-23T05:13:41.545Z,13.09
2023-02-23T05:16:08.708Z,13.07
2023-02-23T05:18:35.559Z,13.06
2023-02-23T05:21:07.067Z,13.08
2023-02-23T05:23:36.323Z,13.09
2023-02-23T05:26:13.348Z,13.08
2023-02-23T05:28:42.002Z,13.06
2023-02-23T05:31:09.934Z,13.30
2023-02-23T05:33:45.665Z,13.27
2023-02-23T05:36:16.640Z,13.20
2023-02-23T05:38:45.848Z,13.14
2023-02-23T05:41:20.589Z,13.12
2023-02-23T05:43:52.283Z,13.10
2023-02-23T05:46:25.582Z,13.11
2023-02-23T05:48:59.103Z,13.09
2023-02-23T05:51:27.807Z,13.07
2023-02-23T05:53:54.591Z,13.08
2023-02-23T05:56:22.004Z,13.10
2023-02-23T05:58:55.402Z,13.09
2023-02-23T06:01:23.395Z,13.08
2023-02-23T06:03:50.746Z,13.12
2023-02-23T06:06:18.457Z,13.10
2023-02-23T06:08:45.210Z,13.10
2023-02-23T06:11:12.258Z,13.11
2023-02-23T06:13:39.093Z,13.11
2023-02-23T06:16:07.932Z,13.10
2023-02-23T06:18:35.384Z,13.10
2023-02-23T06:21:04.086Z,13.11
2023-02-23T06:23:32.569Z,13.10
2023-02-23T06:26:00.000Z,13.10
2023-02-23T06:28:28.226Z,13.08
2023-02-23T06:30:56.092Z,13.08
2023-02-23T06:33:23.804Z,13.08
2023-02-23T06:35:50.600Z,13.05
2023-02-23T06:38:17.562Z,13.06
2023-02-23T06:40:44.707Z,13.05
2023-02-23T06:43:11.451Z,13.07
2023-02-23T06:45:38.773Z,13.07
2023-02-23T06:48:06.018Z,13.06
2023-02-23T06:50:32.812Z,13.05
2023-02-23T06:52:59.551Z,13.04
2023-02-23T06:55:26.441Z,13.01
2023-02-23T06:57:54.223Z,13.00
2023-02-23T07:00:21.732Z,13.00
2023-02-23T07:02:48.712Z,13.03
2023-02-23T07:05:16.205Z,13.01
2023-02-23T07:07:43.256Z,13.02
2023-02-23T07:10:11.043Z,13.04
2023-02-23T07:12:37.762Z,13.05
2023-02-23T07:15:05.814Z,13.07
2023-02-23T07:17:32.561Z,13.09
2023-02-23T07:19:59.361Z,13.09
2023-02-23T07:22:29.351Z,13.10
2023-02-23T07:24:57.495Z,13.12
2023-02-23T07:27:24.446Z,13.13
2023-02-23T07:29:51.328Z,13.16
2023-02-23T07:32:18.249Z,13.18
2023-02-23T07:34:45.954Z,13.19
2023-02-23T07:37:12.663Z,13.21
2023-02-23T07:39:39.424Z,13.22
2023-02-23T07:42:06.290Z,13.24
2023-02-23T07:44:33.068Z,13.27
2023-02-23T07:46:59.813Z,13.29
2023-02-23T07:49:26.803Z,13.30
2023-02-23T07:51:53.723Z,13.31
2023-02-23T07:54:21.812Z,13.34
2023-02-23T07:56:48.693Z,13.34
2023-02-23T07:59:15.414Z,13.36
2023-02-23T08:01:42.132Z,13.38
2023-02-23T08:04:09.181Z,13.39
2023-02-23T08:06:36.533Z,13.40
2023-02-23T08:09:05.220Z,13.46
2023-02-23T08:11:32.082Z,13.44
2023-02-23T08:14:00.290Z,13.49
2023-02-23T08:16:29.423Z,13.48
2023-02-23T08:19:00.932Z,13.51
2023-02-23T08:21:29.826Z,13.53
2023-02-23T08:24:02.954Z,13.54
2023-02-23T08:26:45.033Z,13.55
2023-02-23T08:29:14.309Z,13.57
2023-02-23T08:31:41.242Z,13.60
2023-02-23T08:34:13.652Z,13.61
2023-02-23T08:36:40.572Z,13.61
2023-02-23T08:39:14.699Z,13.64
2023-02-23T08:41:42.408Z,13.64
2023-02-23T08:44:09.344Z,13.66
2023-02-23T08:46:36.720Z,13.66
2023-02-23T08:49:05.989Z,13.66
2023-02-23T08:51:37.071Z,13.69
2023-02-23T08:54:04.000Z,13.67
2023-02-23T08:56:36.338Z,13.68
2023-02-23T08:59:03.099Z,13.72
2023-02-23T09:01:30.191Z,13.72
2023-02-23T09:04:04.987Z,13.73
2023-02-23T09:06:35.371Z,13.74
2023-02-23T09:09:02.360Z,13.73
2023-02-23T09:11:29.090Z,13.73
2023-02-23T09:13:55.944Z,13.74
2023-02-23T09:16:24.050Z,13.75
2023-02-23T09:18:51.967Z,13.76
2023-02-23T09:21:22.342Z,13.77
2023-02-23T09:23:51.260Z,13.77
2023-02-23T09:26:19.988Z,13.76
2023-02-23T09:28:47.474Z,13.78
2023-02-23T09:31:31.502Z,13.80
2023-02-23T09:34:01.724Z,13.80
2023-02-23T09:36:32.579Z,13.81
2023-02-23T09:38:59.534Z,13.82
2023-02-23T09:41:26.317Z,13.84
2023-02-23T09:44:31.320Z,13.85
2023-02-23T09:47:22.660Z,13.85
2023-02-23T09:49:51.748Z,13.85
2023-02-23T09:52:26.732Z,13.89
2023-02-23T09:54:54.096Z,13.88
2023-02-23T09:57:39.806Z,13.84
2023-02-23T10:04:46.969Z,13.75
2023-02-23T10:07:31.480Z,13.77
2023-02-23T10:14:07.864Z,13.78
2023-02-23T10:16:55.233Z,13.78
2023-02-23T10:20:03.580Z,13.80
2023-02-23T10:22:44.933Z,13.79
2023-02-23T10:25:25.820Z,13.81
2023-02-23T10:27:56.120Z,13.83
2023-02-23T10:30:32.900Z,13.87
2023-02-23T10:33:16.443Z,13.86
2023-02-23T10:35:47.012Z,13.87
2023-02-23T10:38:19.544Z,13.89
2023-02-23T10:40:55.223Z,13.91
2023-02-23T10:43:22.367Z,13.94
2023-02-23T10:45:52.814Z,13.95
2023-02-23T10:48:28.881Z,13.99
2023-02-23T10:51:02.962Z,14.00
2023-02-23T10:53:37.537Z,14.00
2023-02-23T10:56:20.723Z,13.99
2023-02-23T10:59:01.671Z,13.97
2023-02-23T11:02:00.957Z,13.94
2023-02-23T11:04:32.542Z,13.90
2023-02-23T11:07:16.690Z,13.88
2023-02-23T11:09:47.556Z,13.86
2023-02-23T11:12:43.354Z,13.84
2023-02-23T11:15:50.795Z,13.80
2023-02-23T11:18:25.491Z,13.79
2023-02-23T11:20:53.367Z,13.78
2023-02-23T11:23:39.045Z,13.78
2023-02-23T11:26:45.736Z,13.78
2023-02-23T11:29:25.537Z,13.79
2023-02-23T11:31:58.271Z,13.77
2023-02-23T11:34:33.070Z,13.81
2023-02-23T11:37:20.703Z,13.84
2023-02-23T11:40:27.101Z,13.84
2023-02-23T11:43:07.959Z,13.81
2023-02-23T11:45:58.357Z,13.82
2023-02-23T11:49:08.773Z,13.82
2023-02-23T11:51:39.994Z,13.81
2023-02-23T11:54:22.139Z,13.87
2023-02-23T11:56:52.177Z,13.91
2023-02-23T11:59:27.120Z,13.95
2023-02-23T12:02:03.897Z,13.99
2023-02-23T12:04:40.703Z,14.02
2023-02-23T12:07:46.302Z,14.02
2023-02-23T12:10:28.115Z,14.00
2023-02-23T12:13:07.570Z,14.01
2023-02-23T12:16:15.551Z,14.00
2023-02-23T12:19:04.272Z,13.99
2023-02-23T12:22:00.174Z,13.99
2023-02-23T12:24:44.454Z,13.99
2023-02-23T12:27:17.652Z,14.01
2023-02-23T12:30:38.210Z,14.05
2023-02-23T12:33:22.803Z,14.04
2023-02-23T12:35:59.141Z,14.04
2023-02-23T12:38:49.126Z,14.02
2023-02-23T12:41:45.255Z,13.95
2023-02-23T12:44:48.614Z,13.91
2023-02-23T12:47:52.874Z,13.83
2023-02-23T12:50:37.984Z,13.76
2023-02-23T12:53:42.905Z,13.73
2023-02-23T12:56:43.834Z,13.70
2023-02-23T12:59:43.917Z,13.69
2023-02-23T13:02:29.893Z,13.70
2023-02-23T13:05:15.315Z,13.74
2023-02-23T13:08:20.655Z,13.76
2023-02-23T13:11:08.592Z,13.79
2023-02-23T13:14:26.694Z,13.87
2023-02-23T13:17:09.230Z,13.91
2023-02-23T13:19:49.080Z,14.02
2023-02-23T13:22:36.596Z,14.17
2023-02-23T13:25:28.185Z,14.29
2023-02-23T13:28:01.674Z,14.45
2023-02-23T13:30:35.945Z,14.57
2023-02-23T13:33:19.233Z,14.71
2023-02-23T13:35:46.217Z,14.80
2023-02-23T13:38:29.989Z,14.92
2023-02-23T13:41:33.904Z,15.02
2023-02-23T13:44:32.551Z,15.07
2023-02-23T13:47:38.094Z,15.11
2023-02-23T13:50:18.079Z,15.11
2023-02-23T13:52:46.678Z,15.10
2023-02-23T13:55:40.009Z,15.13
2023-02-23T13:58:19.729Z,15.14
2023-02-23T14:01:03.334Z,15.14
2023-02-23T14:03:39.795Z,15.13
2023-02-23T14:06:08.037Z,15.15
2023-02-23T14:08:39.138Z,15.16
2023-02-23T14:11:06.957Z,15.20
2023-02-23T14:13:41.477Z,15.25
2023-02-23T14:16:19.594Z,15.29
2023-02-23T14:19:11.087Z,15.36
2023-02-23T14:21:59.041Z,15.40
2023-02-23T14:24:27.896Z,15.48
2023-02-23T14:27:41.492Z,15.51
2023-02-23T14:30:11.859Z,15.54
2023-02-23T14:32:42.285Z,15.58
2023-02-23T14:35:33.931Z,15.61
2023-02-23T14:38:08.011Z,15.64
2023-02-23T14:40:42.576Z,15.62
2023-02-23T14:43:39.003Z,15.54
2023-02-23T14:46:27.984Z,15.48
2023-02-23T14:49:10.287Z,15.46
2023-02-23T14:51:48.026Z,15.42
2023-02-23T14:54:35.344Z,15.38
2023-02-23T14:57:20.087Z,15.35
2023-02-23T15:00:01.606Z,15.29
2023-02-23T15:02:30.438Z,15.25
2023-02-23T15:04:57.563Z,15.18
2023-02-23T15:07:40.745Z,15.16
2023-02-23T15:10:20.382Z,15.11
2023-02-23T15:12:47.474Z,15.01
2023-02-23T15:15:20.885Z,14.96
2023-02-23T15:17:57.715Z,14.92
2023-02-23T15:23:05.782Z,14.80
2023-02-23T15:25:39.197Z,14.74
2023-02-23T15:28:26.335Z,14.71
2023-02-23T15:30:59.879Z,14.64
2023-02-23T15:33:30.245Z,14.56
2023-02-23T15:36:02.962Z,14.53
2023-02-23T15:38:43.400Z,14.49
2023-02-23T15:41:36.496Z,14.45
2023-02-23T15:44:22.806Z,14.39
2023-02-23T15:46:58.854Z,14.34
2023-02-23T15:49:37.281Z,14.29
2023-02-23T15:52:14.823Z,14.26
2023-02-23T15:55:01.556Z,14.22
2023-02-23T15:57:52.794Z,14.17
2023-02-23T16:00:43.142Z,14.12
2023-02-23T16:03:34.127Z,14.07
2023-02-23T16:06:06.624Z,14.03
2023-02-23T16:08:36.735Z,14.01
2023-02-23T16:11:19.124Z,13.98
2023-02-23T16:13:49.101Z,13.94
2023-02-23T16:16:20.200Z,13.90
2023-02-23T16:18:54.632Z,13.89
2023-02-23T16:21:25.325Z,13.85
2023-02-23T16:23:55.152Z,13.83
2023-02-23T16:26:57.602Z,13.79
2023-02-23T16:29:41.510Z,13.71
2023-02-23T16:32:21.192Z,13.68
2023-02-23T16:34:54.853Z,13.66
2023-02-23T16:37:26.056Z,13.65
2023-02-23T16:39:55.888Z,13.64
2023-02-23T16:42:33.739Z,13.63
2023-02-23T16:45:01.454Z,13.60
2023-02-23T16:47:50.071Z,13.60
2023-02-23T16:50:24.414Z,13.55
2023-02-23T16:52:53.468Z,13.53
2023-02-23T16:55:29.733Z,13.53
2023-02-23T16:58:03.140Z,13.51
2023-02-23T17:00:33.334Z,13.48
2023-02-23T17:03:00.897Z,13.49
2023-02-23T17:05:29.124Z,13.45
2023-02-23T17:07:58.169Z,13.45
2023-02-23T17:10:30.869Z,13.44
2023-02-23T17:13:06.174Z,13.41
2023-02-23T17:15:37.698Z,13.40
2023-02-23T17:18:05.553Z,13.40
2023-02-23T17:20:33.305Z,13.39
2023-02-23T17:23:02.035Z,13.40
2023-02-23T17:25:29.325Z,13.40
2023-02-23T17:27:58.313Z,13.38
2023-02-23T17:30:26.053Z,13.36
2023-02-23T17:32:57.108Z,13.37
2023-02-23T17:35:25.691Z,13.33
2023-02-23T17:37:53.072Z,13.31
2023-02-23T17:40:30.973Z,13.29
2023-02-23T17:43:00.838Z,13.29
2023-02-23T17:45:28.939Z,13.26
2023-02-23T17:47:56.971Z,13.25
2023-02-23T17:50:26.301Z,13.23
2023-02-23T17:52:54.302Z,13.21
2023-02-23T17:55:23.063Z,13.20
2023-02-23T17:57:49.809Z,13.19
2023-02-23T18:00:18.465Z,13.17
2023-02-23T18:02:45.835Z,13.15
2023-02-23T18:05:14.270Z,13.14
2023-02-23T18:07:41.534Z,13.11
2023-02-23T18:10:09.582Z,13.10
2023-02-23T18:12:36.600Z,13.12
2023-02-23T18:15:03.656Z,13.09
2023-02-23T18:17:32.468Z,13.08
2023-02-23T18:20:00.333Z,13.07
2023-02-23T18:22:27.191Z,13.06
2023-02-23T18:24:54.061Z,13.05
2023-02-23T18:27:20.824Z,13.04
2023-02-23T18:29:47.600Z,13.02
2023-02-23T18:32:14.450Z,13.01
2023-02-23T18:34:41.373Z,13.02
2023-02-23T18:37:09.886Z,12.99
2023-02-23T18:39:36.744Z,12.99
2023-02-23T18:42:04.392Z,12.97
2023-02-23T18:44:33.436Z,12.97
2023-02-23T18:47:02.350Z,12.93
2023-02-23T18:49:29.114Z,12.93
2023-02-23T18:51:55.869Z,12.92
2023-02-23T18:54:25.829Z,12.92
2023-02-23T18:56:52.584Z,12.90
2023-02-23T18:59:19.312Z,12.90
2023-02-23T19:01:47.860Z,12.89
2023-02-23T19:04:15.288Z,12.88
2023-02-23T19:06:45.222Z,12.84
2023-02-23T19:09:14.404Z,12.82
2023-02-23T19:11:42.934Z,12.81
2023-02-23T19:14:16.544Z,12.79
2023-02-23T19:16:46.657Z,12.77
2023-02-23T19:19:15.114Z,12.76
2023-02-23T19:21:42.192Z,12.74
2023-02-23T19:24:09.435Z,12.73
2023-02-23T19:26:37.470Z,12.71
2023-02-23T19:29:04.877Z,12.67
2023-02-23T19:31:31.895Z,12.67
2023-02-23T19:33:59.622Z,12.65
2023-02-23T19:36:33.786Z,12.64
2023-02-23T19:39:11.047Z,12.64
2023-02-23T19:41:39.686Z,12.61
2023-02-23T19:44:06.768Z,12.60
2023-02-23T19:46:34.883Z,12.60
2023-02-23T19:49:02.049Z,12.61
2023-02-23T19:51:29.181Z,12.58
2023-02-23T19:53:58.190Z,12.57
2023-02-23T19:56:27.853Z,12.55
2023-02-23T19:58:56.975Z,12.54
2023-02-23T20:01:27.475Z,12.53
2023-02-23T20:03:56.581Z,12.52
2023-02-23T20:06:27.388Z,12.50
2023-02-23T20:08:55.052Z,12.50
2023-02-23T20:11:22.625Z,12.49
2023-02-23T20:13:50.879Z,12.51
2023-02-23T20:16:17.784Z,12.49
2023-02-23T20:18:44.933Z,12.48
2023-02-23T20:21:16.367Z,12.48
2023-02-23T20:23:45.603Z,12.48
2023-02-23T20:26:17.623Z,12.48
2023-02-23T20:28:44.836Z,12.48
2023-02-23T20:31:20.909Z,12.49
2023-02-23T20:33:51.379Z,12.50
2023-02-23T20:36:20.628Z,12.52
2023-02-23T20:38:47.860Z,12.53
2023-02-23T20:41:15.078Z,12.52
2023-02-23T20:43:43.658Z,12.53
2023-02-23T20:46:13.656Z,12.52
2023-02-23T20:48:42.376Z,12.52
2023-02-23T20:51:14.215Z,12.53
2023-02-23T20:53:46.523Z,12.50
2023-02-23T20:56:16.688Z,12.50
2023-02-23T20:58:44.394Z,12.52
2023-02-23T21:01:18.412Z,12.54
2023-02-23T21:03:45.347Z,12.51
2023-02-23T21:06:12.442Z,12.51
2023-02-23T21:08:42.107Z,12.53
2023-02-23T21:11:08.953Z,12.52
2023-02-23T21:13:36.670Z,12.52
2023-02-23T21:16:03.704Z,12.53
2023-02-23T21:18:31.839Z,12.54
2023-02-23T21:21:09.302Z,12.52
2023-02-23T21:23:39.591Z,12.52
2023-02-23T21:26:15.919Z,12.51
2023-02-23T21:28:45.229Z,12.49
2023-02-23T21:31:14.238Z,12.49
2023-02-23T21:33:43.706Z,12.49
2023-02-23T21:36:18.976Z,12.49
2023-02-23T21:38:45.941Z,12.50
2023-02-23T21:41:14.525Z,12.51
2023-02-23T21:43:43.730Z,12.49
2023-02-23T21:46:15.619Z,12.48
2023-02-23T21:48:43.370Z,12.45
2023-02-23T21:51:14.851Z,12.46
2023-02-23T21:53:43.334Z,12.44
2023-02-23T21:56:16.829Z,12.45
2023-02-23T21:58:53.031Z,12.42
2023-02-23T22:01:27.082Z,12.42
2023-02-23T22:03:55.151Z,12.40
2023-02-23T22:06:28.968Z,12.39
2023-02-23T22:08:56.526Z,12.36
2023-02-23T22:11:26.854Z,12.33
2023-02-23T22:13:59.536Z,12.32
2023-02-23T22:16:41.281Z,12.29
2023-02-23T22:19:09.317Z,12.25
2023-02-23T22:21:41.647Z,12.24
2023-02-23T22:24:10.773Z,12.22
2023-02-23T22:26:53.984Z,12.19
2023-02-23T22:29:26.470Z,12.18
2023-02-23T22:31:53.628Z,12.18
2023-02-23T22:34:20.908Z,12.18
2023-02-23T22:36:48.599Z,12.19
2023-02-23T22:39:18.340Z,12.20
2023-02-23T22:41:47.504Z,12.18
2023-02-23T22:44:19.029Z,12.17
2023-02-23T22:46:48.291Z,12.17
2023-02-23T22:49:16.237Z,12.14
2023-02-23T22:51:43.871Z,12.14
2023-02-23T22:54:13.341Z,12.13
2023-02-23T22:56:42.200Z,12.12
2023-02-23T22:59:10.943Z,12.09
2023-02-23T23:01:39.096Z,12.09
2023-02-23T23:04:10.361Z,12.10
2023-02-23T23:06:41.230Z,12.07
2023-02-23T23:09:12.123Z,12.04
2023-02-23T23:11:42.677Z,12.05
2023-02-23T23:14:11.434Z,12.03
2023-02-23T23:16:47.588Z,12.04
2023-02-23T23:19:19.111Z,12.02
2023-02-23T23:21:46.296Z,12.02
2023-02-23T23:24:13.743Z,11.99
2023-02-23T23:26:40.907Z,12.01
2023-02-23T23:29:11.565Z,12.00
2023-02-23T23:31:45.137Z,11.99
2023-02-23T23:34:14.024Z,11.98
2023-02-23T23:36:49.100Z,11.99
2023-02-23T23:39:22.950Z,11.99
2023-02-23T23:41:50.852Z,12.01
2023-02-23T23:44:21.686Z,12.01
2023-02-23T23:46:50.798Z,12.00
2023-02-23T23:49:25.473Z,12.02
2023-02-23T23:51:56.298Z,12.02
2023-02-23T23:54:30.805Z,12.03
2023-02-23T23:57:05.685Z,12.03
2023-02-23T23:59:34.787Z,12.03
